createdAt,value
2023-01-19T06:41:49.981Z,85.16
2023-01-19T06:44:18.619Z,84.76
2023-01-19T06:46:49.020Z,85.37
2023-01-19T06:49:17.790Z,85.47
2023-01-19T06:51:46.434Z,84.33
2023-01-19T06:54:15.279Z,85.38
2023-01-19T06:56:43.645Z,86.21
2023-01-19T06:59:13.475Z,85.69
2023-01-19T07:01:41.668Z,86.89
2023-01-19T07:04:14.448Z,86.08
2023-01-19T07:06:43.074Z,86.68
2023-01-19T07:09:15.642Z,87.05
2023-01-19T07:11:44.985Z,86.22
2023-01-19T07:14:14.955Z,86.39
2023-01-19T07:16:43.489Z,85.49
2023-01-19T07:19:11.852Z,86.67
2023-01-19T07:21:40.484Z,86.05
2023-01-19T07:24:08.717Z,86.16
2023-01-19T07:26:37.284Z,85.52
2023-01-19T07:29:05.794Z,85.01
2023-01-19T07:31:35.627Z,86.01
2023-01-19T07:34:03.999Z,84.75
2023-01-19T07:36:32.757Z,85.54
2023-01-19T07:39:01.427Z,86.17
2023-01-19T07:41:30.444Z,85.86
2023-01-19T07:43:58.920Z,85.33
2023-01-19T07:46:27.697Z,85.40
2023-01-19T07:48:57.728Z,86.20
2023-01-19T07:51:28.445Z,85.24
2023-01-19T07:53:56.697Z,83.88
2023-01-19T07:56:26.631Z,84.97
2023-01-19T07:58:54.944Z,85.42
2023-01-19T08:01:24.121Z,85.53
2023-01-19T08:03:52.523Z,85.57
2023-01-19T08:06:24.523Z,85.86
2023-01-19T08:08:53.013Z,85.96
2023-01-19T08:11:21.865Z,86.73
2023-01-19T08:13:50.138Z,85.56
2023-01-19T08:16:19.441Z,86.99
2023-01-19T08:18:47.802Z,85.53
2023-01-19T08:21:17.125Z,86.36
2023-01-19T08:23:53.809Z,85.19
2023-01-19T08:26:24.961Z,85.68
2023-01-19T08:28:53.512Z,86.18
2023-01-19T08:31:24.700Z,85.77
2023-01-19T08:33:53.248Z,84.85
2023-01-19T08:36:21.949Z,85.40
2023-01-19T08:38:51.792Z,85.54
2023-01-19T08:41:20.252Z,84.44
2023-01-19T08:43:48.519Z,85.21
2023-01-19T08:46:21.159Z,85.96
2023-01-19T08:48:49.561Z,85.30
2023-01-19T08:51:18.669Z,85.96
2023-01-19T08:53:46.831Z,85.87
2023-01-19T08:56:18.549Z,84.72
2023-01-19T08:59:07.545Z,85.94
2023-01-19T09:01:37.711Z,85.49
2023-01-19T09:04:06.393Z,84.59
2023-01-19T09:06:35.162Z,83.53
2023-01-19T09:09:04.051Z,84.53
2023-01-19T09:11:41.441Z,82.81
2023-01-19T09:14:10.035Z,83.55
2023-01-19T09:16:38.585Z,83.24
2023-01-19T09:19:08.678Z,85.18
2023-01-19T09:21:38.248Z,84.24
2023-01-19T09:24:06.906Z,84.49
2023-01-19T09:26:37.129Z,83.30
2023-01-19T09:29:05.534Z,84.45
2023-01-19T09:31:34.245Z,85.26
2023-01-19T09:34:02.614Z,83.10
2023-01-19T09:36:32.992Z,85.13
2023-01-19T09:39:01.319Z,86.34
2023-01-19T09:41:30.483Z,87.08
2023-01-19T09:44:02.478Z,86.52
2023-01-19T09:46:36.599Z,86.72
2023-01-19T09:49:12.002Z,86.43
2023-01-19T09:51:45.561Z,86.71
2023-01-19T11:43:24.122Z,82.35
2023-01-19T11:58:54.707Z,83.44
2023-01-19T12:01:26.461Z,83.58
2023-01-19T12:04:01.753Z,82.65
2023-01-19T12:06:34.573Z,82.51
2023-01-19T12:09:10.291Z,81.88
2023-01-19T12:11:43.009Z,81.40
2023-01-19T12:14:22.099Z,81.51
2023-01-19T12:16:52.777Z,82.41
2023-01-19T12:19:27.111Z,81.84
2023-01-19T12:21:55.475Z,80.67
2023-01-19T12:24:32.149Z,81.08
2023-01-19T12:27:03.269Z,80.20
2023-01-19T12:29:35.992Z,80.54
2023-01-19T12:32:31.490Z,80.78
2023-01-19T12:35:00.129Z,80.98
2023-01-19T12:37:42.321Z,81.21
2023-01-19T12:40:25.119Z,82.12
2023-01-19T12:43:02.502Z,80.18
2023-01-19T12:45:34.834Z,81.70
2023-01-19T12:48:03.865Z,81.89
2023-01-19T12:50:36.152Z,81.83
2023-01-19T12:53:08.750Z,81.71
2023-01-19T12:55:39.257Z,80.64
2023-01-19T12:58:14.582Z,81.38
2023-01-19T13:00:46.557Z,79.80
2023-01-19T13:03:47.731Z,80.84
2023-01-19T13:06:16.166Z,80.80
2023-01-19T13:09:01.783Z,80.51
2023-01-19T13:11:34.325Z,80.93
2023-01-19T13:14:36.528Z,80.86
2023-01-19T13:17:33.259Z,80.92
2023-01-19T13:20:38.833Z,81.07
2023-01-19T13:23:20.790Z,81.19
2023-01-19T13:25:53.146Z,82.08
2023-01-19T13:28:29.719Z,80.99
2023-01-19T13:31:03.099Z,80.51
2023-01-19T13:33:41.086Z,80.67
2023-01-19T13:36:20.967Z,81.00
2023-01-19T13:38:50.114Z,80.35
2023-01-19T13:41:21.997Z,81.05
2023-01-19T13:43:55.790Z,80.27
2023-01-19T13:46:26.442Z,80.43
2023-01-19T13:49:00.751Z,81.14
2023-01-19T13:51:28.993Z,80.86
2023-01-19T13:53:58.669Z,79.92
2023-01-19T13:56:28.871Z,79.36
2023-01-19T13:59:10.440Z,80.59
2023-01-19T14:01:44.948Z,79.75
2023-01-19T14:04:28.599Z,77.16
2023-01-19T14:06:59.642Z,79.57
2023-01-19T14:09:28.381Z,79.96
2023-01-19T14:12:14.173Z,79.41
2023-01-19T14:14:43.944Z,79.09
2023-01-19T14:17:27.480Z,78.69
2023-01-19T14:19:58.724Z,80.31
2023-01-19T14:22:41.066Z,78.81
2023-01-19T14:25:33.230Z,78.83
2023-01-19T14:28:30.332Z,78.73
2023-01-19T14:31:00.397Z,79.68
2023-01-19T14:33:36.558Z,79.84
2023-01-19T14:36:26.764Z,79.54
2023-01-19T14:38:56.065Z,81.41
2023-01-19T14:41:28.417Z,80.21
2023-01-19T14:43:57.813Z,79.94
2023-01-19T14:46:27.749Z,77.92
2023-01-19T14:49:02.154Z,77.95
2023-01-19T14:51:33.224Z,80.73
2023-01-19T14:54:03.881Z,80.15
2023-01-19T14:56:34.551Z,79.57
2023-01-19T14:59:03.893Z,79.55
2023-01-19T15:01:32.790Z,80.60
2023-01-19T15:04:01.123Z,79.58
2023-01-19T15:06:30.233Z,80.64
2023-01-19T15:09:00.147Z,80.21
2023-01-19T15:11:32.058Z,80.84
2023-01-19T15:14:01.023Z,81.03
2023-01-19T15:16:32.149Z,80.84
2023-01-19T15:19:00.834Z,81.00
2023-01-19T15:21:29.803Z,80.60
2023-01-19T15:24:00.493Z,80.80
2023-01-19T15:26:29.377Z,80.39
2023-01-19T15:28:58.376Z,80.69
2023-01-19T15:31:28.354Z,80.93
2023-01-19T15:33:57.073Z,80.79
2023-01-19T15:36:26.291Z,80.82
2023-01-19T15:38:55.948Z,80.77
2023-01-19T15:41:30.060Z,81.29
2023-01-19T15:43:59.371Z,80.18
2023-01-19T15:46:28.851Z,80.48
2023-01-19T15:48:57.261Z,80.69
2023-01-19T15:51:28.204Z,80.82
2023-01-19T15:53:57.117Z,81.49
2023-01-19T15:56:29.326Z,81.44
2023-01-19T15:58:58.645Z,80.07
2023-01-19T16:01:32.314Z,81.29
2023-01-19T16:04:02.385Z,81.11
2023-01-19T16:06:32.374Z,81.68
2023-01-19T16:09:01.890Z,80.58
2023-01-19T16:11:33.821Z,81.43
2023-01-19T16:14:03.901Z,80.40
2023-01-19T16:16:33.091Z,81.10
2023-01-19T16:19:02.789Z,80.44
2023-01-19T16:21:31.373Z,80.54
2023-01-19T16:23:59.924Z,80.82
2023-01-19T16:26:34.427Z,81.19
2023-01-19T16:29:08.531Z,80.81
2023-01-19T16:31:37.982Z,80.95
2023-01-19T16:34:07.176Z,81.27
2023-01-19T16:36:37.710Z,78.53
2023-01-19T16:39:08.997Z,81.24
2023-01-19T16:41:40.051Z,80.93
2023-01-19T16:44:13.191Z,80.93
2023-01-19T16:46:44.872Z,81.23
2023-01-19T16:49:16.353Z,80.92
2023-01-19T16:51:46.731Z,81.49
2023-01-19T16:54:16.425Z,79.65
2023-01-19T16:56:46.862Z,81.09
2023-01-19T16:59:17.352Z,80.93
2023-01-19T17:01:46.889Z,80.27
2023-01-19T17:04:15.681Z,81.35
2023-01-19T17:06:44.315Z,79.91
2023-01-19T17:09:12.681Z,79.79
2023-01-19T17:11:42.854Z,79.89
2023-01-19T17:14:15.541Z,80.05
2023-01-19T17:16:45.492Z,80.20
2023-01-19T17:19:17.461Z,80.79
2023-01-19T17:21:49.384Z,81.29
2023-01-19T17:24:18.823Z,80.78
2023-01-19T17:26:49.279Z,81.28
2023-01-19T19:37:11.045Z,81.30
2023-01-19T19:39:40.021Z,81.20
2023-01-19T19:42:08.224Z,81.18
2023-01-19T19:44:37.198Z,81.46
2023-01-19T19:47:05.530Z,81.20
2023-01-19T19:49:33.977Z,81.31
2023-01-19T19:52:03.128Z,80.64
2023-01-19T19:54:32.808Z,81.36
2023-01-19T19:57:01.062Z,81.19
2023-01-19T19:59:29.839Z,80.67
2023-01-19T20:01:58.121Z,80.42
2023-01-19T20:04:26.385Z,80.89
2023-01-19T20:06:55.025Z,79.41
2023-01-19T20:09:23.815Z,80.22
2023-01-19T20:11:53.668Z,80.43
2023-01-19T20:14:23.064Z,80.36
2023-01-19T20:16:52.318Z,80.67
2023-01-19T20:19:20.606Z,80.63
2023-01-19T20:21:49.552Z,81.69
2023-01-19T20:24:20.269Z,80.83
2023-01-19T20:26:50.990Z,81.51
2023-01-19T20:29:20.911Z,82.22
2023-01-19T20:31:54.574Z,81.34
2023-01-19T20:34:24.940Z,81.85
2023-01-19T20:36:54.079Z,81.81
2023-01-19T20:39:24.503Z,81.37
2023-01-19T20:41:53.779Z,81.64
2023-01-19T20:44:26.080Z,81.13
2023-01-19T20:46:55.336Z,80.79
2023-01-19T20:49:23.966Z,80.60
2023-01-19T20:51:52.872Z,81.11
2023-01-19T20:54:23.092Z,81.76
2023-01-19T20:56:52.147Z,80.65
2023-01-19T20:59:21.098Z,80.29
2023-01-19T21:01:51.305Z,81.01
2023-01-19T21:04:20.371Z,81.97
2023-01-19T21:06:49.569Z,81.23
2023-01-19T21:09:18.684Z,81.79
2023-01-19T21:11:47.351Z,81.55
2023-01-19T21:14:16.506Z,81.64
2023-01-19T21:16:45.269Z,81.95
2023-01-19T21:19:14.873Z,82.15
2023-01-19T21:21:43.141Z,82.37
2023-01-19T21:24:12.572Z,81.58
2023-01-19T21:26:41.922Z,82.16
2023-01-19T21:29:13.781Z,83.00
2023-01-19T21:31:42.067Z,82.02
2023-01-19T21:34:10.890Z,82.63
2023-01-19T21:36:41.017Z,82.48
2023-01-19T21:39:09.321Z,81.82
2023-01-19T21:41:40.356Z,82.76
2023-01-19T21:44:09.119Z,83.38
2023-01-19T21:46:37.464Z,83.05
2023-01-19T21:49:07.737Z,82.86
2023-01-19T21:51:38.097Z,83.36
2023-01-19T21:54:09.225Z,82.28
2023-01-19T21:56:39.169Z,82.94
2023-01-19T21:59:08.081Z,83.86
2023-01-19T22:01:36.536Z,82.97
2023-01-19T22:04:04.849Z,83.17
2023-01-19T22:06:33.458Z,83.03
2023-01-19T22:09:01.736Z,83.25
2023-01-19T22:11:31.699Z,84.21
2023-01-19T22:14:01.411Z,83.76
2023-01-19T22:16:30.815Z,83.50
2023-01-19T22:19:02.560Z,83.00
2023-01-19T22:21:33.088Z,82.36
2023-01-19T22:24:03.920Z,81.54
2023-01-19T22:26:34.971Z,82.77
2023-01-19T22:29:04.776Z,83.69
2023-01-19T22:31:33.843Z,83.86
2023-01-19T22:34:02.517Z,82.88
2023-01-19T22:36:33.951Z,82.59
2023-01-19T22:39:04.423Z,82.27
2023-01-19T22:41:36.039Z,82.35
2023-01-19T22:44:07.701Z,81.92
2023-01-19T22:46:38.125Z,82.47
2023-01-19T22:49:07.984Z,82.24
2023-01-19T22:51:36.581Z,82.20
2023-01-19T22:54:05.969Z,83.11
2023-01-19T22:56:37.630Z,82.30
2023-01-19T22:59:07.679Z,82.04
2023-01-19T23:01:37.913Z,81.60
2023-01-19T23:04:07.778Z,81.39
2023-01-19T23:06:37.702Z,83.08
2023-01-19T23:09:08.398Z,81.74
2023-01-19T23:11:39.835Z,81.55
2023-01-19T23:14:10.724Z,81.72
2023-01-19T23:16:43.092Z,81.33
2023-01-19T23:19:14.256Z,81.63
2023-01-19T23:21:42.888Z,82.27
2023-01-19T23:24:11.567Z,82.40
2023-01-19T23:26:41.633Z,82.18
2023-01-19T23:29:12.653Z,81.53
2023-01-19T23:31:44.601Z,82.09
2023-01-19T23:34:13.592Z,81.55
2023-01-19T23:36:43.433Z,81.45
2023-01-19T23:39:15.774Z,82.09
2023-01-19T23:41:45.536Z,82.44
2023-01-19T23:44:13.898Z,81.94
2023-01-19T23:46:42.394Z,81.81
2023-01-19T23:49:10.579Z,82.09
2023-01-19T23:51:40.056Z,81.37
2023-01-19T23:54:08.796Z,81.77
2023-01-19T23:56:38.387Z,81.42
2023-01-19T23:59:10.239Z,81.80
